Time;durP1;ratioP1;P1;durP2;ratioP2;P2;SDS_P1;SDS_P2;PMS_P1;PMS_P2;Temp;Humidity;BMP_temperature;BMP_pressure;BME280_temperature;BME280_humidity;BME280_pressure;Samples;Min_cycle;Max_cycle;Signal;HPM_P1;HPM_P2
2021/12/06 00:00:17;;;;;;;27.35;20.60;;;;;;;3.43;79.88;100955.97;3587817;40;20107;-67
2021/12/06 00:02:43;;;;;;;29.65;22.60;;;;;;;3.46;80.17;100956.75;3581230;40;20107;-66
2021/12/06 00:05:12;;;;;;;31.63;24.35;;;;;;;3.26;80.36;100914.81;3584385;40;20051;-67
2021/12/06 00:07:38;;;;;;;32.97;24.83;;;;;;;3.53;80.67;100957.44;3586448;40;20054;-67
2021/12/06 00:10:08;;;;;;;33.47;24.50;;;;;;;3.58;80.94;100959.94;3581270;40;20306;-67
2021/12/06 00:12:34;;;;;;;34.42;26.55;;;;;;;3.62;81.28;100965.13;3582271;40;20708;-67
2021/12/06 00:15:00;;;;;;;37.97;26.92;;;;;;;3.67;81.84;100964.97;3586875;40;20095;-68
2021/12/06 00:17:25;;;;;;;36.35;26.35;;;;;;;3.71;80.93;100972.81;3586333;40;20134;-67
2021/12/06 00:19:51;;;;;;;35.75;25.27;;;;;;;3.76;81.86;100980.63;3579433;40;20346;-67
2021/12/06 00:22:22;;;;;;;29.95;23.92;;;;;;;3.27;81.39;100886.50;3585956;40;20065;-67
2021/12/06 00:24:51;;;;;;;33.72;25.33;;;;;;;3.85;81.12;100975.03;3582072;40;20047;-68
2021/12/06 00:27:17;;;;;;;31.23;24.05;;;;;;;3.89;81.55;100971.34;3575840;40;20069;-67
2021/12/06 00:29:43;;;;;;;31.85;23.42;;;;;;;3.95;81.42;100981.78;3582324;40;20064;-67
2021/12/06 00:32:09;;;;;;;33.28;25.02;;;;;;;3.98;81.38;100980.84;3578960;40;20053;-66
2021/12/06 00:34:37;;;;;;;29.25;23.17;;;;;;;3.98;81.26;100975.50;3585671;40;20448;-66
2021/12/06 00:37:54;;;;;;;34.20;24.55;;;;;;;3.97;80.76;100972.91;3584067;40;20092;-67
2021/12/06 00:39:57;;;;;;;31.60;24.30;;;;;;;4.13;80.76;100992.78;3579723;40;20051;-66
2021/12/06 00:42:27;;;;;;;32.35;24.98;;;;;;;4.19;81.31;101000.56;3584468;40;20074;-67
2021/12/06 00:44:54;;;;;;;31.83;24.65;;;;;;;4.20;81.10;100999.63;3583083;40;20126;-67
2021/12/06 00:47:20;;;;;;;36.10;25.80;;;;;;;4.06;81.63;100969.94;3573896;40;20436;-67
2021/12/06 00:49:47;;;;;;;32.67;26.15;;;;;;;4.17;81.44;100997.06;3574048;40;20399;-67
2021/12/06 00:52:14;;;;;;;32.33;24.90;;;;;;;4.28;81.56;101008.25;3574115;40;20051;-68
2021/12/06 00:54:42;;;;;;;32.13;25.15;;;;;;;4.28;81.25;101013.56;3578209;40;20056;-66
2021/12/06 00:57:11;;;;;;;34.03;26.52;;;;;;;4.32;81.39;101017.00;3578072;40;20048;-67
2021/12/06 00:59:38;;;;;;;31.60;25.30;;;;;;;4.36;81.73;101032.78;3588224;40;20120;-67
2021/12/06 01:02:06;;;;;;;35.92;27.48;;;;;;;4.40;81.07;101031.75;3581766;40;20089;-67
2021/12/06 01:04:37;;;;;;;34.70;25.70;;;;;;;4.38;81.50;101030.97;3580304;40;20052;-66
2021/12/06 01:07:05;;;;;;;34.92;26.35;;;;;;;4.43;81.33;101037.00;3585072;40;20056;-67
2021/12/06 01:09:31;;;;;;;31.88;25.40;;;;;;;4.47;81.09;101042.22;3587653;40;20531;-67
2021/12/06 01:11:58;;;;;;;33.47;25.77;;;;;;;4.42;80.63;101035.25;3588582;40;20048;-66
2021/12/06 01:14:24;;;;;;;33.97;25.80;;;;;;;4.43;80.84;101026.34;3584855;40;20061;-66
2021/12/06 01:16:51;;;;;;;32.75;25.63;;;;;;;4.53;81.24;101044.66;3586389;40;20052;-67
2021/12/06 01:19:17;;;;;;;35.10;26.48;;;;;;;4.54;81.35;101038.44;3583748;40;20049;-67
2021/12/06 01:22:32;;;;;;;35.25;28.02;;;;;;;4.52;81.16;101035.81;3582519;40;20062;-68
2021/12/06 01:24:40;;;;;;;35.08;27.40;;;;;;;4.53;81.75;101056.19;3578262;40;20389;-67
2021/12/06 01:39:57;;;;;;;35.70;27.30;;;;;;;4.60;81.45;101060.41;3582621;40;20055;-66
2021/12/06 01:42:24;;;;;;;34.53;27.67;;;;;;;4.62;81.48;101061.19;3581981;40;20045;-66
2021/12/06 01:44:57;;;;;;;37.60;28.23;;;;;;;4.64;81.62;101067.34;3589500;40;20059;-67
2021/12/06 01:47:34;;;;;;;33.65;26.95;;;;;;;4.64;81.15;101069.16;3586822;40;20060;-66
2021/12/06 01:50:08;;;;;;;33.97;26.90;;;;;;;4.66;81.03;101064.63;3581349;40;20109;-67
2021/12/06 01:52:40;;;;;;;38.28;29.48;;;;;;;4.67;81.13;101071.72;3582598;40;20052;-66
2021/12/06 01:55:12;;;;;;;36.67;27.33;;;;;;;4.67;80.93;101076.19;3579086;40;20084;-68
2021/12/06 01:57:38;;;;;;;38.83;27.85;;;;;;;4.48;81.27;101042.19;3576028;40;20056;-66
2021/12/06 02:00:15;;;;;;;37.53;27.77;;;;;;;4.68;81.34;101077.91;3579719;40;20114;-67
2021/12/06 02:02:41;;;;;;;34.47;27.00;;;;;;;4.68;81.10;101078.78;3580575;40;20087;-68
2021/12/06 02:05:07;;;;;;;33.45;26.48;;;;;;;4.71;81.04;101080.47;3574999;40;20288;-67
2021/12/06 02:07:33;;;;;;;31.23;25.65;;;;;;;4.70;80.79;101079.59;3574520;40;20078;-66
2021/12/06 02:10:00;;;;;;;36.03;28.25;;;;;;;4.70;81.30;101076.94;3576390;40;20298;-68
2021/12/06 02:12:29;;;;;;;35.10;27.75;;;;;;;4.71;81.17;101078.66;3580722;40;20415;-68
2021/12/06 02:17:51;;;;;;;36.60;27.08;;;;;;;4.73;81.14;101087.50;3550899;40;20044;-67
2021/12/06 02:20:25;;;;;;;35.95;27.70;;;;;;;4.75;81.08;101088.28;3578124;40;20607;-67
2021/12/06 02:22:51;;;;;;;37.22;27.58;;;;;;;4.76;80.95;101092.72;3582744;40;20055;-67
2021/12/06 02:25:19;;;;;;;37.05;26.17;;;;;;;4.76;80.71;101086.53;3575753;40;20048;-67
2021/12/06 02:27:50;;;;;;;36.22;27.42;;;;;;;4.75;81.09;101090.94;3585891;40;20130;-67
2021/12/06 02:30:17;;;;;;;36.20;27.10;;;;;;;4.76;80.86;101098.03;3585678;40;20100;-67
2021/12/06 02:32:47;;;;;;;33.20;27.58;;;;;;;4.76;80.78;101102.50;3585223;40;20055;-66
2021/12/06 02:35:19;;;;;;;35.03;27.60;;;;;;;4.73;80.79;101097.28;3587800;40;20053;-67
2021/12/06 02:37:46;;;;;;;35.80;27.35;;;;;;;4.72;80.95;101100.84;3584821;40;20051;-66
2021/12/06 02:40:26;;;;;;;34.70;27.25;;;;;;;4.70;81.09;101103.56;3584745;40;20128;-67
2021/12/06 02:42:54;;;;;;;35.40;28.15;;;;;;;4.70;80.95;101108.91;3583564;40;20059;-66
2021/12/06 02:45:25;;;;;;;37.58;28.80;;;;;;;4.71;81.40;101110.63;3584441;40;20052;-67
2021/12/06 02:47:53;;;;;;;35.03;27.88;;;;;;;4.65;81.48;101111.69;3585703;40;20096;-67
2021/12/06 02:50:26;;;;;;;39.55;28.90;;;;;;;4.71;81.44;101128.41;3588053;40;20060;-67
2021/12/06 02:52:54;;;;;;;35.55;27.65;;;;;;;4.69;81.50;101122.25;3587853;40;20291;-67
2021/12/06 02:55:31;;;;;;;39.83;28.30;;;;;;;4.41;81.47;101076.13;3587126;40;20053;-67
2021/12/06 02:58:13;;;;;;;39.70;28.38;;;;;;;4.70;81.41;101124.88;3579741;40;20324;-69
2021/12/06 03:00:45;;;;;;;37.83;28.23;;;;;;;4.71;81.18;101120.41;3586347;40;20359;-67
2021/12/06 03:03:11;;;;;;;37.08;27.77;;;;;;;4.72;81.30;101133.66;3586154;40;20055;-66
2021/12/06 03:05:37;;;;;;;36.47;28.15;;;;;;;4.71;81.56;101129.28;3584184;40;20145;-67
2021/12/06 03:08:06;;;;;;;41.05;29.73;;;;;;;4.70;80.99;101124.00;3583658;40;20047;-66
2021/12/06 03:10:32;;;;;;;39.03;28.65;;;;;;;4.45;81.46;101087.53;3615845;22;20051;-62
2021/12/06 03:12:58;;;;;;;39.05;29.98;;;;;;;4.70;81.48;101124.00;3590699;40;20060;-62
2021/12/06 03:15:24;;;;;;;39.05;29.15;;;;;;;4.68;81.92;101132.03;3584701;40;20138;-62
2021/12/06 03:17:50;;;;;;;39.28;29.42;;;;;;;4.71;81.60;101133.72;3586706;40;20370;-62
2021/12/06 03:20:16;;;;;;;39.42;29.70;;;;;;;4.71;81.40;101129.28;3585048;40;20145;-62
2021/12/06 03:22:45;;;;;;;42.40;30.60;;;;;;;4.71;81.21;101133.72;3591365;40;20097;-63
2021/12/06 03:25:15;;;;;;;42.22;30.75;;;;;;;4.69;81.39;101119.59;3585720;39;20118;-62
2021/12/06 03:27:41;;;;;;;37.05;28.67;;;;;;;4.73;81.06;101132.75;3586549;40;20056;-63
2021/12/06 03:30:10;;;;;;;38.55;29.08;;;;;;;4.75;81.33;101130.91;3588591;40;20063;-62
2021/12/06 03:32:36;;;;;;;36.72;28.23;;;;;;;4.76;81.10;101129.13;3590333;40;20567;-62
2021/12/06 03:35:03;;;;;;;38.95;28.02;;;;;;;4.77;81.38;101131.72;3586795;40;20088;-63
2021/12/06 03:37:29;;;;;;;38.15;28.58;;;;;;;4.76;81.40;101129.13;3588486;40;20345;-62
2021/12/06 03:39:55;;;;;;;41.05;29.38;;;;;;;4.72;81.05;101123.00;3587715;40;20056;-62
2021/12/06 03:42:24;;;;;;;39.88;28.77;;;;;;;4.75;81.61;101138.88;3580229;39;20141;-63
2021/12/06 03:44:51;;;;;;;39.90;29.15;;;;;;;4.74;81.53;101134.50;3589428;40;20149;-62
2021/12/06 03:47:30;;;;;;;38.83;29.13;;;;;;;4.75;81.44;101138.03;3589287;40;20059;-62
2021/12/06 03:49:58;;;;;;;37.53;28.98;;;;;;;4.74;81.10;101138.97;3587473;40;20098;-62
2021/12/06 03:52:26;;;;;;;38.78;28.55;;;;;;;4.74;81.15;101142.47;3590302;40;20048;-63
2021/12/06 03:54:53;;;;;;;37.40;29.00;;;;;;;4.72;80.94;101133.66;3589360;40;20121;-62
2021/12/06 03:57:20;;;;;;;41.97;29.67;;;;;;;4.76;80.83;101138.00;3589620;40;20056;-62
2021/12/06 03:59:48;;;;;;;37.83;28.35;;;;;;;4.74;80.91;101134.50;3589743;39;20052;-62
2021/12/06 04:02:14;;;;;;;36.15;28.42;;;;;;;4.69;81.16;101133.75;3589333;40;20056;-62
2021/12/06 04:04:40;;;;;;;38.08;29.25;;;;;;;4.68;81.33;101147.13;3590435;40;20039;-62
2021/12/06 04:07:07;;;;;;;39.28;30.10;;;;;;;4.62;81.29;101141.06;3584589;40;20056;-62
2021/12/06 04:09:32;;;;;;;39.60;30.58;;;;;;;4.61;81.71;101146.47;3583916;40;20044;-62
2021/12/06 04:11:58;;;;;;;43.60;30.90;;;;;;;4.58;81.68;101157.22;3583542;40;20044;-62
2021/12/06 04:14:24;;;;;;;37.67;28.15;;;;;;;4.56;81.69;101140.41;3587460;40;20051;-62
2021/12/06 04:16:49;;;;;;;39.30;29.55;;;;;;;4.57;81.41;101155.47;3578021;40;20425;-63
2021/12/06 04:19:17;;;;;;;38.55;28.67;;;;;;;4.55;81.39;101157.31;3587018;40;21263;-62
2021/12/06 04:21:46;;;;;;;42.08;29.92;;;;;;;4.52;82.13;101146.75;3587033;40;20060;-63
2021/12/06 04:24:13;;;;;;;42.83;31.08;;;;;;;4.53;81.57;101159.13;3586582;40;20071;-63
2021/12/06 04:26:40;;;;;;;44.70;30.92;;;;;;;4.50;81.39;101149.44;3589614;40;20058;-62
2021/12/06 04:29:07;;;;;;;41.45;29.70;;;;;;;4.46;81.58;101149.63;3586629;40;20080;-62
2021/12/06 04:31:38;;;;;;;42.60;30.70;;;;;;;4.39;81.50;101147.13;3586978;40;20052;-62
2021/12/06 04:34:04;;;;;;;41.17;29.92;;;;;;;4.34;81.75;101142.88;3589802;39;20357;-62
2021/12/06 04:36:30;;;;;;;38.53;29.85;;;;;;;3.98;81.91;101087.22;3586660;40;20048;-62
2021/12/06 04:38:56;;;;;;;40.22;29.45;;;;;;;4.31;81.62;101153.59;3584807;40;20120;-62
2021/12/06 04:41:23;;;;;;;39.10;29.35;;;;;;;4.07;81.33;101131.28;3588875;40;20055;-62
2021/12/06 04:43:48;;;;;;;39.90;27.75;;;;;;;4.17;80.89;101154.91;3574517;40;20052;-62
2021/12/06 04:46:14;;;;;;;34.85;27.02;;;;;;;4.15;81.38;101166.50;3587359;40;20197;-63
2021/12/06 04:48:40;;;;;;;34.80;26.20;;;;;;;4.09;81.08;101159.59;3589995;40;20047;-63
2021/12/06 04:51:06;;;;;;;36.47;26.70;;;;;;;4.03;81.02;101173.09;3589716;39;20059;-62
2021/12/06 04:53:38;;;;;;;37.58;27.75;;;;;;;3.95;80.96;101178.59;3587839;40;20093;-62
2021/12/06 04:56:20;;;;;;;37.78;28.25;;;;;;;3.60;81.26;101134.41;3590988;40;20095;-62
2021/12/06 04:58:58;;;;;;;37.65;26.88;;;;;;;3.82;80.81;101184.31;3585579;40;20048;-62
2021/12/06 05:01:28;;;;;;;33.38;26.08;;;;;;;3.76;81.21;101187.16;3591150;40;20064;-62
2021/12/06 05:04:02;;;;;;;35.80;27.45;;;;;;;3.69;80.93;101181.13;3592148;40;20302;-62
2021/12/06 05:06:34;;;;;;;36.65;26.95;;;;;;;3.62;80.69;101184.88;3591190;40;20084;-62
2021/12/06 05:09:15;;;;;;;36.65;26.08;;;;;;;3.54;80.99;101184.22;3590796;39;20098;-62
2021/12/06 05:11:43;;;;;;;36.75;25.98;;;;;;;3.46;80.61;101185.28;3587138;40;20067;-63
2021/12/06 05:14:10;;;;;;;35.35;26.25;;;;;;;3.14;80.70;101141.00;3591010;40;20128;-62
2021/12/06 05:16:36;;;;;;;35.60;25.77;;;;;;;3.35;80.25;101192.66;3590195;40;20060;-62
2021/12/06 05:19:05;;;;;;;37.75;26.70;;;;;;;3.28;80.62;101193.75;3590312;40;20048;-62
2021/12/06 05:21:34;;;;;;;37.13;27.80;;;;;;;3.22;81.03;101191.25;3591804;40;20158;-63
2021/12/06 05:23:59;;;;;;;38.42;27.33;;;;;;;3.19;81.23;101201.94;3589750;40;20478;-62
2021/12/06 05:26:25;;;;;;;35.15;27.23;;;;;;;3.13;81.33;101199.44;3591559;39;20096;-63
2021/12/06 05:28:56;;;;;;;36.13;26.73;;;;;;;3.06;81.26;101201.38;3591199;40;20352;-61
2021/12/06 05:31:23;;;;;;;37.85;26.23;;;;;;;3.00;81.56;101202.41;3589969;40;20052;-62
2021/12/06 05:33:54;;;;;;;37.03;26.77;;;;;;;2.99;81.94;101211.28;3592274;40;20084;-62
2021/12/06 05:36:21;;;;;;;52.78;29.10;;;;;;;2.91;81.51;101181.38;3588936;40;20094;-63
2021/12/06 05:38:51;;;;;;;82.28;28.90;;;;;;;3.00;82.57;101205.06;3591516;40;20397;-63
2021/12/06 05:41:17;;;;;;;54.25;29.38;;;;;;;2.95;81.86;101193.69;3591191;39;20120;-63
2021/12/06 05:43:43;;;;;;;59.50;30.23;;;;;;;3.02;82.29;101197.06;3592102;40;20096;-63
2021/12/06 05:46:09;;;;;;;87.45;28.23;;;;;;;3.04;82.64;101195.22;3591109;40;20086;-62
2021/12/06 05:48:35;;;;;;;89.32;29.13;;;;;;;2.94;82.64;101181.31;3586736;40;20051;-63
2021/12/06 05:51:01;;;;;;;112.43;31.33;;;;;;;3.00;83.11;101189.13;3592200;40;20059;-62
2021/12/06 05:53:27;;;;;;;91.43;30.77;;;;;;;3.05;83.15;101198.78;3588052;40;20051;-63
2021/12/06 05:55:53;;;;;;;77.40;28.77;;;;;;;3.06;82.64;101200.50;3586975;40;20086;-64
2021/12/06 05:58:23;;;;;;;78.45;29.92;;;;;;;3.05;82.85;101193.47;3590549;39;20057;-63
2021/12/06 06:00:50;;;;;;;71.55;31.67;;;;;;;3.10;83.47;101203.03;3589106;40;20044;-63
2021/12/06 06:03:16;;;;;;;108.78;31.73;;;;;;;3.12;83.06;101211.00;3587489;40;20067;-63
2021/12/06 06:05:43;;;;;;;78.68;30.13;;;;;;;3.15;83.23;101210.91;3591030;40;20145;-63
2021/12/06 06:08:09;;;;;;;67.18;31.17;;;;;;;3.11;84.40;101196.84;3587918;40;20060;-63
2021/12/06 06:10:35;;;;;;;135.63;29.83;;;;;;;3.20;84.21;101219.63;3587279;40;20084;-63
2021/12/06 06:13:04;;;;;;;74.95;31.02;;;;;;;3.20;83.51;101224.94;3587051;40;20052;-63
2021/12/06 06:15:31;;;;;;;78.75;30.23;;;;;;;3.18;83.74;101221.47;3589646;39;20137;-63
2021/12/06 06:17:59;;;;;;;85.45;30.45;;;;;;;3.23;83.60;101235.47;3593004;39;20356;-62
2021/12/06 06:20:47;;;;;;;99.80;30.05;;;;;;;3.20;83.30;101230.25;3585649;40;20729;-63
2021/12/06 06:23:13;;;;;;;64.25;29.15;;;;;;;3.23;83.03;101241.66;3591130;40;20059;-63
2021/12/06 06:25:39;;;;;;;110.32;30.20;;;;;;;3.24;83.50;101237.25;3592199;40;20048;-62
2021/12/06 06:28:06;;;;;;;69.70;31.25;;;;;;;3.16;83.78;101218.81;3588864;40;20112;-64
2021/12/06 06:30:33;;;;;;;144.30;30.60;;;;;;;3.28;84.12;101241.56;3592650;40;20457;-63
2021/12/06 06:32:59;;;;;;;88.15;32.17;;;;;;;3.10;83.87;101210.13;3592039;39;20382;-63
2021/12/06 06:35:25;;;;;;;109.35;32.40;;;;;;;2.95;84.03;101175.09;3591107;40;20092;-63
2021/12/06 06:37:52;;;;;;;185.38;32.47;;;;;;;3.33;84.42;101238.78;3591186;40;20044;-62
2021/12/06 06:40:18;;;;;;;83.57;32.63;;;;;;;3.37;84.20;101243.13;3590537;40;20121;-62
2021/12/06 06:42:47;;;;;;;182.20;33.40;;;;;;;3.35;84.59;101235.19;3592876;40;20047;-63
2021/12/06 06:45:17;;;;;;;97.10;33.45;;;;;;;3.40;84.47;101237.75;3589751;40;20062;-64
2021/12/06 06:47:45;;;;;;;116.70;34.08;;;;;;;3.37;84.77;101227.19;3590922;40;20051;-63
2021/12/06 06:50:11;;;;;;;99.85;35.53;;;;;;;3.45;84.26;101236.69;3593768;39;20162;-63
2021/12/06 06:52:38;;;;;;;79.97;34.15;;;;;;;3.48;84.30;101236.59;3589954;40;20102;-63
2021/12/06 06:55:07;;;;;;;136.52;34.15;;;;;;;3.48;84.47;101235.75;3590786;40;20087;-63
2021/12/06 06:57:33;;;;;;;116.63;35.28;;;;;;;3.49;84.40;101245.47;3590037;40;20063;-65
2021/12/06 06:59:59;;;;;;;186.82;35.10;;;;;;;3.49;83.97;101249.00;3584591;40;20083;-63
2021/12/06 07:02:25;;;;;;;123.78;33.67;;;;;;;3.50;84.68;101247.22;3590804;40;20048;-63
2021/12/06 07:04:51;;;;;;;90.70;35.15;;;;;;;3.51;84.32;101246.28;3590034;40;20048;-63
2021/12/06 07:07:17;;;;;;;146.73;34.83;;;;;;;3.20;84.46;101188.66;3593699;39;20056;-63
2021/12/06 07:09:43;;;;;;;90.38;36.78;;;;;;;3.54;84.35;101245.34;3587162;40;20064;-63
2021/12/06 07:12:17;;;;;;;71.00;35.85;;;;;;;3.55;84.25;101250.59;3589777;40;20276;-62
2021/12/06 07:14:46;;;;;;;79.40;35.70;;;;;;;3.60;84.69;101240.72;3585693;40;20422;-63
2021/12/06 07:17:14;;;;;;;77.47;35.22;;;;;;;3.49;84.31;101243.69;3585654;40;20060;-63
2021/12/06 07:19:39;;;;;;;68.22;34.92;;;;;;;3.65;84.88;101261.91;3589083;40;20113;-62
2021/12/06 07:22:06;;;;;;;83.82;33.38;;;;;;;3.66;84.67;101260.97;3584763;40;20056;-63
2021/12/06 07:24:32;;;;;;;56.88;32.47;;;;;;;3.64;83.94;101262.78;3578152;40;20052;-63
2021/12/06 07:26:58;;;;;;;58.85;36.00;;;;;;;3.72;83.80;101266.13;3590654;40;20121;-63
2021/12/06 07:29:25;;;;;;;62.05;34.80;;;;;;;3.76;84.19;101273.09;3591333;40;20129;-63
2021/12/06 07:31:52;;;;;;;54.13;34.28;;;;;;;3.79;83.77;101267.72;3585624;40;20118;-63
2021/12/06 07:34:18;;;;;;;53.20;34.13;;;;;;;3.82;83.90;101278.25;3590553;40;20066;-63
2021/12/06 07:36:44;;;;;;;53.65;35.60;;;;;;;3.84;83.97;101279.09;3591455;40;20058;-63
2021/12/06 07:39:10;;;;;;;46.90;33.28;;;;;;;3.88;83.54;101286.06;3586275;40;20319;-63
2021/12/06 07:41:37;;;;;;;50.67;34.83;;;;;;;3.92;83.30;101285.06;3592118;39;20051;-63
2021/12/06 07:44:04;;;;;;;47.72;33.40;;;;;;;3.19;83.04;101151.47;3590401;40;20048;-63
2021/12/06 07:46:31;;;;;;;51.03;34.70;;;;;;;3.98;83.03;101280.50;3587670;40;20354;-63
2021/12/06 07:48:57;;;;;;;50.15;34.78;;;;;;;3.99;82.73;101268.94;3590322;40;20044;-63
2021/12/06 07:51:26;;;;;;;48.38;34.38;;;;;;;4.01;82.68;101268.00;3589310;40;20062;-63
2021/12/06 07:53:53;;;;;;;51.20;35.10;;;;;;;4.02;82.76;101268.88;3590303;40;20052;-63
2021/12/06 07:56:19;;;;;;;50.13;34.33;;;;;;;4.06;82.80;101265.19;3588192;40;20051;-63
2021/12/06 07:58:46;;;;;;;59.45;38.72;;;;;;;4.07;83.05;101261.66;3593633;39;20047;-63
2021/12/06 08:01:12;;;;;;;62.80;39.28;;;;;;;4.09;82.75;101258.03;3590591;40;20063;-64
2021/12/06 08:03:41;;;;;;;79.40;42.00;;;;;;;4.09;82.82;101254.47;3590246;40;20059;-64
2021/12/06 08:06:10;;;;;;;70.18;40.70;;;;;;;4.12;82.71;101252.63;3590987;40;20054;-64
2021/12/06 08:08:43;;;;;;;67.18;40.53;;;;;;;4.13;82.40;101246.38;3592887;40;20129;-65
2021/12/06 08:11:14;;;;;;;68.97;40.83;;;;;;;4.15;83.61;101248.97;3592137;40;20055;-64
2021/12/06 08:13:47;;;;;;;76.30;43.58;;;;;;;4.06;82.94;101233.28;3586747;40;20040;-65
2021/12/06 08:16:20;;;;;;;78.35;42.83;;;;;;;4.09;83.15;101227.88;3590835;39;20055;-65
2021/12/06 08:18:47;;;;;;;71.88;41.95;;;;;;;4.12;82.53;101233.09;3589694;40;20072;-66
2021/12/06 08:21:18;;;;;;;75.00;44.63;;;;;;;4.21;83.05;101246.16;3585386;40;20621;-66
2021/12/06 08:23:49;;;;;;;68.35;41.83;;;;;;;4.20;82.51;101247.06;3587673;40;20052;-66
2021/12/06 08:26:17;;;;;;;69.32;42.08;;;;;;;4.17;82.12;101252.47;3590613;40;20184;-64
2021/12/06 08:28:45;;;;;;;69.38;42.25;;;;;;;4.15;82.27;101254.31;3590275;40;20070;-66
2021/12/06 08:31:13;;;;;;;68.25;41.97;;;;;;;4.06;82.64;101233.28;3592506;39;20047;-65
2021/12/06 08:33:41;;;;;;;69.80;41.65;;;;;;;4.17;82.86;101252.47;3587786;40;20044;-63
2021/12/06 08:36:10;;;;;;;64.03;40.28;;;;;;;4.15;81.97;101264.94;3592939;40;20047;-63
2021/12/06 08:38:37;;;;;;;65.97;38.42;;;;;;;4.16;82.62;101264.06;3593797;40;20286;-66
2021/12/06 08:41:10;;;;;;;63.53;39.17;;;;;;;4.15;82.33;101275.59;3590524;40;20058;-63
2021/12/06 08:43:40;;;;;;;68.93;40.30;;;;;;;4.14;82.70;101281.84;3589838;40;20052;-64
2021/12/06 08:46:11;;;;;;;64.60;38.60;;;;;;;4.14;82.51;101289.81;3593338;40;20056;-64
2021/12/06 08:48:40;;;;;;;68.90;39.67;;;;;;;4.17;82.32;101290.59;3593800;39;20063;-64
2021/12/06 08:51:19;;;;;;;66.35;38.90;;;;;;;4.20;82.71;101289.66;3593619;40;20125;-64
2021/12/06 08:53:46;;;;;;;66.13;38.65;;;;;;;4.22;82.33;101289.59;3589239;40;20405;-65
2021/12/06 08:56:13;;;;;;;69.95;39.72;;;;;;;4.21;82.28;101288.72;3590134;40;20120;-64
2021/12/06 08:58:41;;;;;;;67.60;39.00;;;;;;;4.22;82.79;101281.59;3587678;40;20048;-64
2021/12/06 09:01:09;;;;;;;68.13;39.33;;;;;;;4.26;82.48;101299.25;3575856;40;20048;-64
2021/12/06 09:03:36;;;;;;;67.88;38.55;;;;;;;4.28;82.39;101292.06;3592362;40;20048;-64
2021/12/06 09:06:07;;;;;;;68.00;38.03;;;;;;;4.28;82.29;101292.97;3589601;39;20306;-65
2021/12/06 09:08:36;;;;;;;68.72;39.05;;;;;;;4.29;82.32;101297.38;3593552;40;20056;-64
2021/12/06 09:11:04;;;;;;;65.13;38.00;;;;;;;4.32;82.55;101299.09;3625335;22;20464;-67
2021/12/06 09:13:31;;;;;;;65.70;38.25;;;;;;;4.34;82.60;101298.09;3583878;40;20149;-66
2021/12/06 09:16:02;;;;;;;65.13;38.58;;;;;;;4.38;82.48;101299.78;3591956;40;20125;-65
2021/12/06 09:18:33;;;;;;;69.80;38.55;;;;;;;4.40;82.49;101300.59;3581663;40;20488;-66
2021/12/06 09:21:02;;;;;;;64.65;37.00;;;;;;;4.40;82.05;101303.25;3588848;40;20053;-67
2021/12/06 09:23:29;;;;;;;68.70;35.92;;;;;;;4.38;81.74;101294.44;3588006;40;20391;-67
2021/12/06 09:25:55;;;;;;;61.80;35.05;;;;;;;4.21;81.77;101271.88;3588947;40;20055;-67
2021/12/06 09:28:22;;;;;;;63.70;36.78;;;;;;;4.37;82.18;101298.00;3584000;40;20060;-66
2021/12/06 09:30:48;;;;;;;60.47;35.05;;;;;;;4.36;82.39;101301.59;3586894;40;20059;-66
2021/12/06 09:33:16;;;;;;;51.95;30.70;;;;;;;4.39;81.50;101304.16;3578740;40;20063;-67
2021/12/06 09:35:47;;;;;;;65.13;34.55;;;;;;;4.40;81.59;101311.22;3587649;40;20052;-66
2021/12/06 09:38:22;;;;;;;67.13;35.13;;;;;;;4.38;81.70;101304.22;3582101;40;20124;-66
2021/12/06 09:40:52;;;;;;;64.72;35.67;;;;;;;4.38;81.83;101302.44;3585746;40;20055;-68
2021/12/06 09:43:19;;;;;;;78.38;38.53;;;;;;;4.37;81.84;101303.31;3585539;40;20117;-67
2021/12/06 09:45:46;;;;;;;93.30;39.63;;;;;;;4.38;82.06;101305.09;3583366;40;20086;-65
2021/12/06 09:48:16;;;;;;;92.43;40.95;;;;;;;4.38;81.91;101298.91;3579654;40;20052;-66
2021/12/06 09:51:03;;;;;;;96.45;41.72;;;;;;;4.36;81.79;101301.59;3567424;40;20086;-67
2021/12/06 09:53:32;;;;;;;107.85;41.35;;;;;;;4.35;82.01;101301.66;3579743;40;20081;-67
2021/12/06 09:56:06;;;;;;;102.38;40.00;;;;;;;4.36;82.02;101306.91;3582188;40;20460;-67
2021/12/06 09:58:33;;;;;;;98.13;39.90;;;;;;;4.39;82.18;101313.94;3588728;40;20405;-66
2021/12/06 10:01:12;;;;;;;108.55;41.47;;;;;;;4.04;82.09;101253.75;3590107;40;20062;-66
2021/12/06 10:03:38;;;;;;;111.60;40.83;;;;;;;4.36;82.20;101306.91;3579408;40;20064;-67
2021/12/06 10:06:07;;;;;;;105.97;41.83;;;;;;;4.41;81.79;101302.34;3586762;40;20117;-66
2021/12/06 10:08:38;;;;;;;101.10;39.50;;;;;;;4.41;81.51;101299.69;3581476;40;20353;-69
2021/12/06 10:11:07;;;;;;;98.10;37.53;;;;;;;4.37;81.46;101298.00;3588089;40;20383;-66
2021/12/06 10:13:34;;;;;;;93.60;37.40;;;;;;;4.36;81.60;101293.59;3590090;40;20056;-66
2021/12/06 10:16:00;;;;;;;87.57;35.55;;;;;;;4.14;81.51;101248.13;3576133;40;20354;-66
2021/12/06 10:18:26;;;;;;;85.93;34.65;;;;;;;4.39;81.33;101285.53;3582122;40;20071;-66
2021/12/06 10:20:52;;;;;;;84.60;35.53;;;;;;;4.41;81.33;101277.53;3584818;40;20048;-67
2021/12/06 10:23:20;;;;;;;76.32;34.80;;;;;;;4.39;80.98;101274.91;3583699;40;20134;-66
2021/12/06 10:25:51;;;;;;;70.10;31.67;;;;;;;4.41;80.44;101270.41;3582316;40;20055;-66
2021/12/06 10:28:23;;;;;;;75.47;33.15;;;;;;;4.31;81.02;101260.06;3574118;40;20056;-66
2021/12/06 10:31:02;;;;;;;78.70;34.72;;;;;;;4.31;80.69;101263.59;3588876;40;20310;-67
2021/12/06 10:33:37;;;;;;;63.05;30.60;;;;;;;4.33;80.88;101261.75;3585274;40;20319;-66
2021/12/06 10:36:16;;;;;;;66.63;32.13;;;;;;;4.29;80.73;101264.56;3582559;40;20398;-66
2021/12/06 10:38:53;;;;;;;63.60;29.48;;;;;;;4.29;80.66;101269.88;3582416;40;20059;-66
2021/12/06 10:41:29;;;;;;;62.13;30.63;;;;;;;4.28;80.78;101263.69;3582913;40;20396;-67
2021/12/06 10:44:09;;;;;;;59.25;28.80;;;;;;;4.25;80.87;101265.56;3581552;40;20048;-67
2021/12/06 10:46:40;;;;;;;58.05;30.15;;;;;;;4.22;80.90;101255.91;3588871;40;20048;-66
2021/12/06 10:49:12;;;;;;;55.67;30.02;;;;;;;4.28;81.20;101247.75;3586788;40;20121;-66
2021/12/06 10:51:38;;;;;;;54.80;31.13;;;;;;;4.26;80.60;101246.03;3583103;40;20060;-66
2021/12/06 10:54:16;;;;;;;56.60;30.42;;;;;;;4.23;80.30;101235.47;3588261;40;20039;-67
2021/12/06 10:56:47;;;;;;;52.90;30.30;;;;;;;4.04;80.39;101206.72;3576585;40;20044;-66
2021/12/06 10:59:28;;;;;;;51.97;29.70;;;;;;;4.18;80.49;101211.66;3576450;40;20045;-67
2021/12/06 11:02:03;;;;;;;51.40;29.23;;;;;;;4.20;80.74;101209.81;3579059;40;20145;-67
2021/12/06 11:04:30;;;;;;;44.60;25.70;;;;;;;4.12;80.36;101178.13;3578229;40;20088;-65
2021/12/06 11:07:05;;;;;;;43.70;24.52;;;;;;;4.14;80.17;101194.03;3580418;40;20566;-67
2021/12/06 11:09:36;;;;;;;37.67;21.10;;;;;;;4.22;79.37;101215.97;3590296;40;20086;-66
2021/12/06 11:12:05;;;;;;;35.08;20.35;;;;;;;4.21;78.05;101208.91;3586452;40;20390;-66
2021/12/06 11:14:40;;;;;;;30.05;18.33;;;;;;;4.16;78.62;101214.38;3580303;40;20138;-66
2021/12/06 11:17:16;;;;;;;36.28;19.77;;;;;;;4.07;78.52;101205.78;3574124;40;20049;-67
2021/12/06 11:19:42;;;;;;;41.75;20.20;;;;;;;4.00;78.37;101202.44;3584109;40;20048;-66
2021/12/06 11:22:19;;;;;;;32.35;18.38;;;;;;;4.02;77.56;101192.59;3581534;40;20088;-66
2021/12/06 11:24:51;;;;;;;32.78;18.98;;;;;;;4.05;78.36;101175.69;3576922;40;20065;-65
2021/12/06 11:27:32;;;;;;;33.28;19.42;;;;;;;3.97;77.96;101167.06;3570002;40;20044;-65
2021/12/06 11:30:05;;;;;;;32.25;19.80;;;;;;;3.84;78.17;101170.06;3581223;40;20276;-65
2021/12/06 11:32:43;;;;;;;33.30;20.13;;;;;;;3.86;77.89;101172.69;3585411;40;20327;-68
2021/12/06 11:35:23;;;;;;;29.88;18.45;;;;;;;3.83;77.70;101178.94;3581446;40;20348;-66
2021/12/06 11:37:59;;;;;;;30.38;18.38;;;;;;;3.81;78.20;101180.81;3586435;40;20329;-66
2021/12/06 11:40:33;;;;;;;29.67;18.65;;;;;;;3.82;78.17;101169.25;3583874;40;20103;-66